createdAt,value
2023-08-01T00:02:54.026Z,12.60
2023-08-01T00:06:36.051Z,11.07
2023-08-01T00:10:18.150Z,9.48
2023-08-01T00:14:00.166Z,8.10
2023-08-01T00:17:42.242Z,13.75
2023-08-01T00:21:24.233Z,11.73
2023-08-01T00:25:06.572Z,8.93
2023-08-01T00:28:48.600Z,12.38
2023-08-01T00:32:30.652Z,12.45
2023-08-01T00:36:12.636Z,8.80
2023-08-01T00:39:54.641Z,8.88
2023-08-01T00:43:37.049Z,6.05
2023-08-01T00:47:19.707Z,8.10
2023-08-01T00:51:05.433Z,7.13
2023-08-01T00:54:47.430Z,5.07
2023-08-01T00:58:29.503Z,5.45
2023-08-01T01:02:13.127Z,5.88
2023-08-01T01:06:04.325Z,6.75
2023-08-01T01:09:46.334Z,5.88
2023-08-01T01:13:28.319Z,6.40
2023-08-01T01:17:10.439Z,6.53
2023-08-01T01:20:52.525Z,10.95
2023-08-01T01:24:36.483Z,9.82
2023-08-01T01:28:19.557Z,8.82
2023-08-01T01:32:06.766Z,12.23
2023-08-01T01:35:48.942Z,11.52
2023-08-01T01:39:30.978Z,9.20
2023-08-01T01:43:12.975Z,9.27
2023-08-01T01:46:55.261Z,11.48
2023-08-01T01:50:37.309Z,11.75
2023-08-01T01:54:19.357Z,10.52
2023-08-01T01:58:01.470Z,10.10
2023-08-01T02:01:43.465Z,11.40
2023-08-01T02:05:25.466Z,10.63
2023-08-01T02:09:08.088Z,16.13
2023-08-01T02:12:50.048Z,10.75
2023-08-01T02:16:32.156Z,9.38
2023-08-01T02:20:14.166Z,10.32
2023-08-01T02:23:56.188Z,12.90
2023-08-01T02:27:38.161Z,10.18
2023-08-01T02:31:20.798Z,8.10
2023-08-01T02:35:02.875Z,8.95
2023-08-01T02:38:45.046Z,6.50
2023-08-01T02:42:27.066Z,7.13
2023-08-01T02:46:09.108Z,5.43
2023-08-01T02:49:51.094Z,8.63
2023-08-01T02:53:33.088Z,5.15
2023-08-01T02:57:15.029Z,8.15
2023-08-01T03:00:57.533Z,6.60
2023-08-01T03:04:46.639Z,6.03
2023-08-01T03:08:29.294Z,6.22
2023-08-01T03:12:11.299Z,6.88
2023-08-01T03:15:53.342Z,8.77
2023-08-01T03:19:35.380Z,5.65
2023-08-01T03:23:17.534Z,6.95
2023-08-01T03:26:59.491Z,9.15
2023-08-01T03:30:41.518Z,11.25
2023-08-01T03:34:23.549Z,8.45
2023-08-01T03:38:07.737Z,9.68
2023-08-01T03:41:49.881Z,5.55
2023-08-01T03:45:31.960Z,8.77
2023-08-01T03:49:14.018Z,10.80
2023-08-01T03:52:55.984Z,9.45
2023-08-01T03:56:40.741Z,10.35
2023-08-01T04:00:23.066Z,8.23
2023-08-01T04:04:05.275Z,7.47
2023-08-01T04:07:47.392Z,12.32
2023-08-01T04:11:31.627Z,7.10
2023-08-01T04:15:13.670Z,8.43
2023-08-01T04:18:55.673Z,9.23
2023-08-01T04:22:37.732Z,6.80
2023-08-01T04:26:19.701Z,9.38
2023-08-01T04:30:01.881Z,7.20
2023-08-01T04:33:44.775Z,8.35
2023-08-01T04:37:27.309Z,4.43
2023-08-01T04:41:09.287Z,6.90
2023-08-01T04:44:51.299Z,8.07
2023-08-01T04:48:33.363Z,6.00
2023-08-01T04:52:15.436Z,5.43
2023-08-01T04:55:57.381Z,4.20
2023-08-01T04:59:39.349Z,4.93
2023-08-01T05:03:21.456Z,7.60
2023-08-01T05:07:03.654Z,7.47
2023-08-01T05:10:45.628Z,6.43
2023-08-01T05:14:27.613Z,5.43
2023-08-01T05:18:09.650Z,6.40
2023-08-01T05:21:51.641Z,10.18
2023-08-01T05:25:33.716Z,6.93
2023-08-01T05:29:15.767Z,6.00
2023-08-01T05:32:57.743Z,5.20
2023-08-01T05:36:40.127Z,5.35
2023-08-01T05:40:22.452Z,3.08
2023-08-01T05:44:05.205Z,6.40
2023-08-01T05:47:47.246Z,5.75
2023-08-01T05:51:29.298Z,5.72
2023-08-01T05:55:11.322Z,5.55
2023-08-01T05:58:56.220Z,8.02
2023-08-01T06:02:38.677Z,4.18
2023-08-01T06:06:20.743Z,6.53
2023-08-01T06:10:02.987Z,7.85
2023-08-01T06:13:44.993Z,8.10
2023-08-01T06:17:26.996Z,5.85
2023-08-01T06:21:09.128Z,8.77
2023-08-01T06:24:51.097Z,5.60
2023-08-01T06:28:33.174Z,8.50
2023-08-01T06:32:15.165Z,7.22
2023-08-01T06:35:57.162Z,7.78
2023-08-01T06:39:39.116Z,6.03
2023-08-01T06:43:23.735Z,6.00
2023-08-01T06:47:06.078Z,6.88
2023-08-01T06:50:48.062Z,9.48
2023-08-01T06:54:30.010Z,7.53
2023-08-01T06:58:11.989Z,6.47
2023-08-01T07:01:54.088Z,5.93
2023-08-01T07:05:36.186Z,8.02
2023-08-01T07:09:18.185Z,6.03
2023-08-01T07:13:00.242Z,9.73
2023-08-01T07:16:42.606Z,4.78
2023-08-01T07:20:24.837Z,7.95
2023-08-01T07:24:07.308Z,5.82
2023-08-01T07:27:49.389Z,9.52
2023-08-01T07:31:31.645Z,6.20
2023-08-01T07:35:14.407Z,8.45
2023-08-01T07:38:57.434Z,10.27
2023-08-01T07:42:39.426Z,5.65
2023-08-01T07:46:21.424Z,7.00
2023-08-01T07:50:03.673Z,6.53
2023-08-01T07:53:45.644Z,5.90
2023-08-01T07:57:27.625Z,6.50
2023-08-01T08:01:09.727Z,4.55
2023-08-01T08:04:51.832Z,6.40
2023-08-01T08:08:37.697Z,9.70
2023-08-01T08:12:19.701Z,4.35
2023-08-01T08:16:01.998Z,8.70
2023-08-01T08:19:44.169Z,4.47
2023-08-01T08:23:26.156Z,4.90
2023-08-01T08:27:08.283Z,4.25
2023-08-01T08:30:50.257Z,5.40
2023-08-01T08:34:32.327Z,5.50
2023-08-01T08:38:14.384Z,6.50
2023-08-01T08:41:56.560Z,5.07
2023-08-01T08:45:44.403Z,10.38
2023-08-01T08:49:28.076Z,5.32
2023-08-01T08:53:14.109Z,3.47
2023-08-01T08:56:56.907Z,3.33
2023-08-01T09:00:39.701Z,4.57
2023-08-01T09:04:21.913Z,4.60
2023-08-01T09:08:08.721Z,2.88
2023-08-01T09:11:52.839Z,6.35
2023-08-01T09:15:35.472Z,6.30
2023-08-01T09:19:26.331Z,4.72
2023-08-01T09:23:11.209Z,9.23
2023-08-01T09:26:53.258Z,4.82
2023-08-01T09:30:35.524Z,8.07
2023-08-01T09:34:22.259Z,4.32
2023-08-01T09:38:04.252Z,6.32
2023-08-01T09:41:46.721Z,8.48
2023-08-01T09:45:28.732Z,5.63
2023-08-01T09:49:12.172Z,6.10
2023-08-01T09:52:54.466Z,7.03
2023-08-01T09:56:36.995Z,8.70
2023-08-01T10:00:19.019Z,4.85
2023-08-01T10:04:01.381Z,5.07
2023-08-01T10:07:45.854Z,4.20
2023-08-01T10:11:29.000Z,2.78
2023-08-01T10:15:13.106Z,4.35
2023-08-01T10:18:56.008Z,2.72
2023-08-01T10:22:38.744Z,2.90
2023-08-01T10:26:20.891Z,2.78
2023-08-01T10:30:04.915Z,3.85
2023-08-01T10:33:49.418Z,2.65
2023-08-01T10:38:04.801Z,3.60
2023-08-01T10:41:46.807Z,3.60
2023-08-01T10:45:30.738Z,3.38
2023-08-01T10:49:13.124Z,3.58
2023-08-01T10:53:10.162Z,2.28
2023-08-01T10:56:54.307Z,4.30
2023-08-01T11:00:36.428Z,3.53
2023-08-01T11:04:23.489Z,7.03
2023-08-01T11:08:07.240Z,3.10
2023-08-01T11:11:52.441Z,2.20
2023-08-01T11:15:38.892Z,2.58
2023-08-01T11:19:26.151Z,2.40
2023-08-01T11:23:09.217Z,2.90
2023-08-01T11:26:53.891Z,4.25
2023-08-01T11:30:36.626Z,4.68
2023-08-01T11:34:18.687Z,3.35
2023-08-01T11:38:00.791Z,3.08
2023-08-01T11:41:43.873Z,2.50
2023-08-01T11:45:26.993Z,3.70
2023-08-01T11:49:09.786Z,4.13
2023-08-01T11:52:52.351Z,2.42
2023-08-01T11:56:34.757Z,5.20
2023-08-01T12:00:23.568Z,3.75
2023-08-01T12:04:05.911Z,3.67
2023-08-01T12:07:48.031Z,5.07
2023-08-01T12:11:31.342Z,3.78
2023-08-01T12:15:16.821Z,4.60
2023-08-01T12:19:00.864Z,2.53
2023-08-01T12:22:43.460Z,3.83
2023-08-01T12:26:25.974Z,4.03
2023-08-01T12:30:08.699Z,2.42
2023-08-01T12:33:51.021Z,4.95
2023-08-01T12:37:32.978Z,4.85
2023-08-01T12:41:15.105Z,4.30
2023-08-01T12:44:57.125Z,4.22
2023-08-01T12:48:39.370Z,4.88
2023-08-01T12:52:27.821Z,5.35
2023-08-01T12:56:09.890Z,6.25
2023-08-01T12:59:51.932Z,4.30
2023-08-01T13:03:34.029Z,5.63
2023-08-01T13:07:16.122Z,8.00
2023-08-01T13:11:00.821Z,6.45
2023-08-01T13:14:43.012Z,6.50
2023-08-01T13:18:25.050Z,3.58
2023-08-01T13:22:07.404Z,3.50
2023-08-01T13:25:50.580Z,5.78
2023-08-01T13:29:32.526Z,4.53
2023-08-01T13:33:14.525Z,6.55
2023-08-01T13:36:56.737Z,4.25
2023-08-01T13:40:38.764Z,6.53
2023-08-01T13:44:20.742Z,5.38
2023-08-01T13:48:02.812Z,4.32
2023-08-01T13:51:44.832Z,4.75
2023-08-01T13:55:26.878Z,7.03
2023-08-01T13:59:10.020Z,7.20
2023-08-01T14:02:53.588Z,7.60
2023-08-01T14:06:35.717Z,4.25
2023-08-01T14:10:17.966Z,2.92
2023-08-01T14:13:59.924Z,8.93
2023-08-01T14:17:41.996Z,4.57
2023-08-01T14:21:24.066Z,4.18
2023-08-01T14:25:08.317Z,4.78
2023-08-01T14:28:51.323Z,7.25
2023-08-01T14:32:33.372Z,3.20
2023-08-01T14:36:15.580Z,3.13
2023-08-01T14:39:57.969Z,5.03
2023-08-01T14:43:40.103Z,5.03
2023-08-01T14:47:22.503Z,4.28
2023-08-01T14:51:10.702Z,4.03
2023-08-01T14:54:52.728Z,4.65
2023-08-01T14:58:40.099Z,2.42
2023-08-01T15:02:22.452Z,5.18
2023-08-01T15:06:08.553Z,3.83
2023-08-01T15:09:51.478Z,3.72
2023-08-01T15:13:35.357Z,2.30
2023-08-01T15:17:17.530Z,4.25
2023-08-01T15:20:59.547Z,3.80
2023-08-01T15:24:41.658Z,3.65
2023-08-01T15:28:25.562Z,4.07
2023-08-01T15:32:08.128Z,6.28
2023-08-01T15:35:50.149Z,5.15
2023-08-01T15:39:32.330Z,3.65
2023-08-01T15:43:14.337Z,3.65
2023-08-01T15:46:56.360Z,5.07
2023-08-01T15:50:39.012Z,2.38
2023-08-01T15:54:20.986Z,3.08
2023-08-01T15:58:03.032Z,3.63
2023-08-01T16:01:46.418Z,10.05
2023-08-01T16:05:28.481Z,4.60
2023-08-01T16:09:10.587Z,2.72
2023-08-01T16:12:53.627Z,6.10
2023-08-01T16:16:35.639Z,3.42
2023-08-01T16:20:19.551Z,3.08
2023-08-01T16:24:02.433Z,4.53
2023-08-01T16:27:44.405Z,2.90
2023-08-01T16:31:26.508Z,5.35
2023-08-01T16:35:09.019Z,4.00
2023-08-01T16:38:51.037Z,6.50
2023-08-01T16:42:33.036Z,4.82
2023-08-01T16:46:15.620Z,5.22
2023-08-01T16:49:58.972Z,4.55
2023-08-01T16:53:41.084Z,9.27
2023-08-01T16:57:23.668Z,5.43
2023-08-01T17:01:05.717Z,6.55
2023-08-01T17:04:47.796Z,4.30
2023-08-01T17:08:30.299Z,4.78
2023-08-01T17:12:12.365Z,5.32
2023-08-01T17:15:54.488Z,3.55
2023-08-01T17:19:37.240Z,3.95
2023-08-01T17:23:19.384Z,5.53
2023-08-01T17:27:01.342Z,4.00
2023-08-01T17:30:44.366Z,5.63
2023-08-01T17:34:26.367Z,6.55
2023-08-01T17:38:08.425Z,4.40
2023-08-01T17:41:57.569Z,3.38
2023-08-01T17:45:39.700Z,6.28
2023-08-01T17:49:21.671Z,4.72
2023-08-01T17:53:03.720Z,7.45
2023-08-01T17:56:45.739Z,5.53
2023-08-01T18:00:28.036Z,3.03
2023-08-01T18:04:10.290Z,5.78
2023-08-01T18:07:52.671Z,5.25
2023-08-01T18:11:34.818Z,4.80
2023-08-01T18:15:17.268Z,4.18
2023-08-01T18:18:59.315Z,5.47
2023-08-01T18:22:41.302Z,8.60
2023-08-01T18:26:24.747Z,5.40
2023-08-01T18:30:07.613Z,4.70
2023-08-01T18:33:49.898Z,3.67
2023-08-01T18:37:33.345Z,4.82
2023-08-01T18:41:15.594Z,7.25
2023-08-01T18:44:57.639Z,7.80
2023-08-01T18:48:39.705Z,5.30
2023-08-01T18:52:21.919Z,4.40
2023-08-01T18:56:13.371Z,5.70
2023-08-01T18:59:55.718Z,3.17
2023-08-01T19:03:37.704Z,3.70
2023-08-01T19:07:19.731Z,6.32
2023-08-01T19:11:01.710Z,4.93
2023-08-01T19:14:43.730Z,4.78
2023-08-01T19:18:25.764Z,9.43
2023-08-01T19:22:07.812Z,3.70
2023-08-01T19:25:49.836Z,6.07
2023-08-01T19:29:31.845Z,6.28
2023-08-01T19:33:13.875Z,4.20
2023-08-01T19:36:59.144Z,6.75
2023-08-01T19:40:44.869Z,5.55
2023-08-01T19:44:28.808Z,6.80
2023-08-01T19:48:12.362Z,7.35
2023-08-01T19:51:54.499Z,3.45
2023-08-01T19:55:37.126Z,4.03
2023-08-01T19:59:19.432Z,7.70
2023-08-01T20:03:01.554Z,4.65
2023-08-01T20:06:43.959Z,4.03
2023-08-01T20:10:26.195Z,4.47
2023-08-01T20:14:10.366Z,6.68
2023-08-01T20:17:54.461Z,6.65
2023-08-01T20:21:36.760Z,6.55
2023-08-01T20:25:18.852Z,5.75
2023-08-01T20:29:00.922Z,5.22
2023-08-01T20:32:45.661Z,5.55
2023-08-01T20:36:27.839Z,5.53
2023-08-01T20:40:10.956Z,6.55
2023-08-01T20:43:53.038Z,7.07
2023-08-01T20:47:35.827Z,5.35
2023-08-01T20:51:17.915Z,7.55
2023-08-01T20:54:59.897Z,6.82
2023-08-01T20:58:42.028Z,4.90
2023-08-01T21:02:24.082Z,6.18
2023-08-01T21:06:06.425Z,8.45
2023-08-01T21:09:48.711Z,6.43
2023-08-01T21:13:31.730Z,6.05
2023-08-01T21:17:13.694Z,5.90
2023-08-01T21:20:55.687Z,5.88
2023-08-01T21:24:37.642Z,5.57
2023-08-01T21:28:20.458Z,5.63
2023-08-01T21:32:02.471Z,4.35
2023-08-01T21:35:44.482Z,7.97
2023-08-01T21:39:26.538Z,6.10
2023-08-01T21:43:08.622Z,5.53
2023-08-01T21:46:50.965Z,7.03
2023-08-01T21:50:33.004Z,4.78
2023-08-01T21:54:14.986Z,6.10
2023-08-01T21:57:57.045Z,8.13
2023-08-01T22:01:39.029Z,7.32
2023-08-01T22:05:21.144Z,4.72
2023-08-01T22:09:03.719Z,6.75
2023-08-01T22:12:46.025Z,4.65
2023-08-01T22:16:30.216Z,4.10
2023-08-01T22:20:12.687Z,4.65
2023-08-01T22:23:54.641Z,4.32
2023-08-01T22:27:37.096Z,5.13
2023-08-01T22:31:19.300Z,3.30
2023-08-01T22:35:01.485Z,3.42
2023-08-01T22:38:46.684Z,4.25
2023-08-01T22:42:28.833Z,3.75
2023-08-01T22:46:10.865Z,3.67
2023-08-01T22:50:04.876Z,2.17
2023-08-01T22:53:51.540Z,3.42
2023-08-01T22:57:33.521Z,2.80
2023-08-01T23:01:17.230Z,2.75
2023-08-01T23:04:59.346Z,2.95
2023-08-01T23:08:41.700Z,1.52
2023-08-01T23:12:23.820Z,2.03
2023-08-01T23:16:05.827Z,2.85
2023-08-01T23:19:47.849Z,4.40
2023-08-01T23:23:30.249Z,1.77
2023-08-01T23:27:12.334Z,2.03
2023-08-01T23:30:54.374Z,0.45
2023-08-01T23:34:36.552Z,1.45
2023-08-01T23:38:18.581Z,1.30
2023-08-01T23:42:01.536Z,0.85
2023-08-01T23:45:51.496Z,1.63
2023-08-01T23:49:34.961Z,0.75
2023-08-01T23:53:17.875Z,0.55
2023-08-01T23:56:59.993Z,0.85
